createdAt,value
2018-10-09T00:02:03.939Z,30.20
2018-10-09T00:04:33.163Z,30.47
2018-10-09T00:07:02.387Z,29.00
2018-10-09T00:09:31.579Z,26.77
2018-10-09T00:12:00.822Z,32.17
2018-10-09T00:14:30.058Z,28.80
2018-10-09T00:16:59.368Z,33.67
2018-10-09T00:19:28.555Z,32.90
2018-10-09T00:21:57.836Z,32.63
2018-10-09T00:24:27.046Z,30.02
2018-10-09T00:26:59.027Z,30.30
2018-10-09T00:29:28.217Z,28.37
2018-10-09T00:31:57.445Z,30.40
2018-10-09T00:34:26.651Z,28.37
2018-10-09T00:36:56.018Z,37.63
2018-10-09T00:39:25.229Z,30.88
2018-10-09T00:41:54.459Z,28.33
2018-10-09T00:44:23.655Z,25.50
2018-10-09T00:46:52.899Z,25.50
2018-10-09T00:49:22.124Z,33.00
2018-10-09T00:51:51.441Z,31.00
2018-10-09T00:54:20.675Z,27.20
2018-10-09T00:56:49.910Z,28.67
2018-10-09T00:59:19.223Z,32.40
2018-10-09T01:01:48.663Z,27.90
2018-10-09T01:04:18.296Z,30.00
2018-10-09T01:06:47.508Z,26.73
2018-10-09T01:09:17.015Z,29.37
2018-10-09T01:11:46.214Z,28.43
2018-10-09T01:14:16.046Z,27.20
2018-10-09T01:16:45.350Z,31.13
2018-10-09T01:19:15.112Z,28.63
2018-10-09T01:21:44.354Z,25.60
2018-10-09T01:24:14.286Z,28.12
2018-10-09T01:26:43.466Z,26.73
2018-10-09T01:29:13.280Z,30.25
2018-10-09T01:31:42.577Z,28.50
2018-10-09T01:34:12.108Z,27.45
2018-10-09T01:36:41.294Z,29.73
2018-10-09T01:39:11.043Z,30.47
2018-10-09T01:41:40.284Z,32.70
2018-10-09T01:44:09.513Z,37.60
2018-10-09T01:46:38.764Z,38.13
2018-10-09T01:49:07.960Z,36.80
2018-10-09T01:51:37.231Z,34.40
2018-10-09T01:54:06.707Z,41.28
2018-10-09T01:56:36.296Z,33.73
2018-10-09T01:59:05.962Z,27.37
2018-10-09T02:01:35.251Z,30.52
2018-10-09T02:04:04.519Z,34.00
2018-10-09T02:06:33.760Z,31.37
2018-10-09T02:09:03.086Z,38.78
2018-10-09T02:11:32.318Z,33.17
2018-10-09T02:14:01.562Z,28.38
2018-10-09T02:16:30.779Z,28.27
2018-10-09T02:18:59.979Z,29.55
2018-10-09T02:21:32.067Z,31.07
2018-10-09T02:24:01.524Z,29.47
2018-10-09T02:26:30.713Z,32.93
2018-10-09T02:28:59.908Z,42.87
2018-10-09T02:31:29.152Z,37.08
2018-10-09T02:33:58.407Z,30.48
2018-10-09T02:36:27.610Z,32.07
2018-10-09T02:38:56.847Z,31.87
2018-10-09T02:41:26.140Z,34.20
2018-10-09T02:43:55.323Z,30.70
2018-10-09T02:46:24.493Z,30.47
2018-10-09T02:48:53.699Z,34.57
2018-10-09T02:51:22.933Z,33.60
2018-10-09T02:53:52.194Z,34.00
2018-10-09T02:56:21.375Z,31.87
2018-10-09T02:58:50.598Z,32.10
2018-10-09T03:01:19.864Z,39.73
2018-10-09T03:03:49.078Z,33.43
2018-10-09T03:06:18.379Z,34.70
2018-10-09T03:08:47.565Z,36.10
2018-10-09T03:11:17.268Z,32.17
2018-10-09T03:13:46.498Z,31.57
2018-10-09T03:16:16.448Z,27.27
2018-10-09T03:18:45.700Z,27.27
2018-10-09T03:21:15.493Z,34.23
2018-10-09T03:23:45.643Z,36.45
2018-10-09T03:26:15.213Z,28.93
2018-10-09T03:28:44.411Z,25.72
2018-10-09T03:31:14.727Z,32.40
2018-10-09T03:33:43.928Z,31.37
2018-10-09T03:36:13.364Z,33.77
2018-10-09T03:38:42.598Z,31.23
2018-10-09T03:41:11.936Z,32.63
2018-10-09T03:43:41.151Z,32.53
2018-10-09T03:46:10.352Z,30.27
2018-10-09T03:48:39.571Z,33.93
2018-10-09T03:51:08.791Z,37.20
2018-10-09T03:53:38.043Z,26.73
2018-10-09T03:56:07.322Z,31.70
2018-10-09T03:58:36.622Z,37.00
2018-10-09T04:01:05.979Z,34.67
2018-10-09T04:03:35.245Z,43.90
2018-10-09T04:06:04.458Z,34.17
2018-10-09T04:08:33.647Z,31.33
2018-10-09T04:11:03.226Z,32.77
2018-10-09T04:13:32.454Z,34.33
2018-10-09T04:16:01.643Z,30.07
2018-10-09T04:18:30.856Z,36.07
2018-10-09T04:21:00.074Z,32.17
2018-10-09T04:23:29.259Z,36.27
2018-10-09T04:25:58.589Z,34.90
2018-10-09T04:28:27.780Z,37.73
2018-10-09T04:30:58.049Z,38.27
2018-10-09T04:33:27.303Z,45.53
2018-10-09T04:35:56.445Z,48.00
2018-10-09T04:38:25.623Z,42.67
2018-10-09T04:40:55.182Z,43.83
2018-10-09T04:43:24.472Z,44.73
2018-10-09T04:45:53.748Z,44.50
2018-10-09T04:48:22.979Z,43.65
2018-10-09T04:50:52.361Z,38.30
2018-10-09T04:53:21.552Z,37.63
2018-10-09T04:55:50.759Z,47.53
2018-10-09T04:58:20.516Z,43.70
2018-10-09T05:00:49.825Z,43.93
2018-10-09T05:03:19.124Z,44.57
2018-10-09T05:05:48.255Z,42.93
2018-10-09T05:08:17.483Z,40.17
2018-10-09T05:10:46.727Z,45.60
2018-10-09T05:13:16.085Z,36.60
2018-10-09T05:15:45.263Z,42.20
2018-10-09T05:18:14.500Z,36.75
2018-10-09T05:20:43.718Z,43.10
2018-10-09T05:23:12.934Z,36.57
2018-10-09T05:25:42.094Z,36.30
2018-10-09T05:28:11.463Z,43.80
2018-10-09T05:30:40.747Z,42.20
2018-10-09T05:33:10.352Z,39.08
2018-10-09T05:35:39.557Z,37.53
2018-10-09T05:38:09.110Z,43.70
2018-10-09T05:40:38.371Z,44.53
2018-10-09T05:43:07.914Z,54.45
2018-10-09T05:45:39.409Z,41.77
2018-10-09T05:48:09.915Z,42.37
2018-10-09T05:50:39.321Z,46.70
2018-10-09T05:53:08.910Z,47.47
2018-10-09T05:55:38.192Z,51.37
2018-10-09T05:58:08.714Z,48.95
2018-10-09T06:00:37.999Z,49.88
2018-10-09T06:03:07.419Z,52.50
2018-10-09T06:05:36.604Z,52.93
2018-10-09T06:08:05.816Z,46.47
2018-10-09T06:10:35.248Z,42.40
2018-10-09T06:13:04.450Z,40.03
2018-10-09T06:15:33.682Z,41.13
2018-10-09T06:18:02.856Z,40.60
2018-10-09T06:20:32.255Z,39.37
2018-10-09T06:23:01.468Z,39.70
2018-10-09T06:25:30.703Z,32.30
2018-10-09T06:27:59.972Z,40.33
2018-10-09T06:30:29.179Z,36.23
2018-10-09T06:32:58.358Z,36.53
2018-10-09T06:35:27.598Z,36.83
2018-10-09T06:37:56.775Z,34.90
2018-10-09T06:40:26.122Z,40.97
2018-10-09T06:42:55.372Z,33.18
2018-10-09T06:45:24.825Z,41.50
2018-10-09T06:47:54.060Z,30.90
2018-10-09T06:50:23.627Z,38.73
2018-10-09T06:52:52.905Z,48.00
2018-10-09T06:55:22.123Z,37.87
2018-10-09T06:57:51.323Z,38.40
2018-10-09T07:00:20.607Z,40.87
2018-10-09T07:02:49.760Z,39.30
2018-10-09T07:05:18.998Z,35.97
2018-10-09T07:07:48.200Z,39.63
2018-10-09T07:10:17.461Z,42.63
2018-10-09T07:12:46.690Z,38.20
2018-10-09T07:15:15.916Z,43.37
2018-10-09T07:17:45.172Z,55.80
2018-10-09T07:20:14.865Z,57.05
2018-10-09T07:22:44.305Z,63.37
2018-10-09T07:25:13.881Z,45.03
2018-10-09T07:27:43.100Z,43.73
2018-10-09T07:30:12.818Z,52.23
2018-10-09T07:32:42.043Z,39.90
2018-10-09T07:35:12.454Z,47.30
2018-10-09T07:37:41.728Z,45.20
2018-10-09T07:40:11.308Z,48.83
2018-10-09T07:42:40.579Z,52.37
2018-10-09T07:45:10.436Z,51.17
2018-10-09T07:47:39.614Z,49.43
2018-10-09T07:50:09.192Z,57.47
2018-10-09T07:52:38.397Z,50.60
2018-10-09T07:55:07.992Z,46.63
2018-10-09T07:57:37.205Z,44.70
2018-10-09T08:00:06.519Z,36.10
2018-10-09T08:02:35.900Z,36.95
2018-10-09T08:05:05.162Z,29.50
2018-10-09T08:07:34.343Z,32.43
2018-10-09T08:10:03.560Z,34.90
2018-10-09T08:12:33.067Z,28.57
2018-10-09T08:15:02.304Z,26.60
2018-10-09T08:17:31.528Z,32.08
2018-10-09T08:20:00.708Z,26.53
2018-10-09T08:22:30.124Z,28.70
2018-10-09T08:24:59.259Z,29.80
2018-10-09T08:27:28.495Z,32.63
2018-10-09T08:29:58.047Z,29.23
2018-10-09T08:32:27.403Z,37.23
2018-10-09T08:34:56.667Z,32.07
2018-10-09T08:37:25.905Z,33.13
2018-10-09T08:39:55.145Z,34.50
2018-10-09T08:42:24.527Z,31.37
2018-10-09T08:44:53.758Z,34.03
2018-10-09T08:47:22.958Z,37.47
2018-10-09T08:49:52.157Z,31.62
2018-10-09T08:52:21.419Z,35.23
2018-10-09T08:54:50.620Z,43.37
2018-10-09T08:57:19.881Z,34.53
2018-10-09T08:59:49.076Z,37.00
2018-10-09T09:02:18.436Z,41.42
2018-10-09T09:04:47.639Z,37.10
2018-10-09T09:07:16.852Z,43.03
2018-10-09T09:09:46.260Z,31.47
2018-10-09T09:12:15.669Z,39.70
2018-10-09T09:14:44.951Z,33.17
2018-10-09T09:17:14.144Z,34.50
2018-10-09T09:19:43.360Z,34.50
2018-10-09T09:22:12.611Z,36.17
2018-10-09T09:24:41.857Z,42.87
2018-10-09T09:27:11.188Z,36.90
2018-10-09T09:29:40.340Z,35.52
2018-10-09T09:32:10.393Z,37.27
2018-10-09T09:34:39.662Z,42.77
2018-10-09T09:37:09.288Z,48.97
2018-10-09T09:39:38.496Z,50.23
2018-10-09T09:42:08.519Z,52.00
2018-10-09T09:44:37.724Z,43.90
2018-10-09T09:47:06.933Z,49.10
2018-10-09T09:49:36.165Z,40.83
2018-10-09T09:52:05.449Z,47.17
2018-10-09T09:54:34.639Z,40.52
2018-10-09T09:57:03.933Z,44.60
2018-10-09T09:59:33.246Z,43.00
2018-10-09T10:02:03.769Z,48.13
2018-10-09T10:04:34.149Z,41.40
2018-10-09T10:07:04.508Z,41.57
2018-10-09T10:09:34.736Z,46.70
2018-10-09T10:12:03.956Z,44.43
2018-10-09T10:14:33.220Z,44.70
2018-10-09T10:17:02.403Z,52.67
2018-10-09T10:19:31.647Z,44.33
2018-10-09T10:22:00.827Z,45.28
2018-10-09T10:24:30.051Z,55.38
2018-10-09T10:26:59.238Z,48.80
2018-10-09T10:29:28.440Z,55.87
2018-10-09T10:31:57.859Z,46.55
2018-10-09T10:34:27.076Z,40.00
2018-10-09T10:36:56.295Z,42.63
2018-10-09T10:39:25.543Z,44.50
2018-10-09T10:41:54.716Z,44.03
2018-10-09T10:44:23.949Z,36.80
2018-10-09T10:46:53.148Z,40.10
2018-10-09T10:49:22.377Z,36.27
2018-10-09T10:51:51.572Z,33.63
2018-10-09T10:54:20.775Z,41.33
2018-10-09T10:56:50.054Z,38.27
2018-10-09T10:59:19.160Z,35.53
2018-10-09T11:01:48.460Z,41.53
2018-10-09T11:04:17.539Z,43.67
2018-10-09T11:06:46.736Z,41.10
2018-10-09T11:09:15.951Z,48.23
2018-10-09T11:11:45.152Z,35.60
2018-10-09T11:14:14.379Z,42.10
2018-10-09T11:16:43.592Z,44.13
2018-10-09T11:19:12.805Z,39.92
2018-10-09T11:21:42.322Z,35.23
2018-10-09T11:24:11.478Z,36.80
2018-10-09T11:26:40.673Z,39.40
2018-10-09T11:29:10.198Z,42.80
2018-10-09T11:31:39.449Z,36.53
2018-10-09T11:34:09.064Z,38.13
2018-10-09T11:36:38.250Z,38.73
2018-10-09T11:39:08.497Z,35.23
2018-10-09T11:41:37.769Z,40.30
2018-10-09T11:44:07.448Z,32.57
2018-10-09T11:46:37.176Z,34.07
2018-10-09T11:49:07.017Z,34.03
2018-10-09T11:51:36.419Z,34.67
2018-10-09T11:54:05.632Z,41.23
2018-10-09T11:56:34.840Z,39.20
2018-10-09T11:59:04.123Z,39.67
2018-10-09T12:01:33.296Z,39.47
2018-10-09T12:04:02.497Z,34.50
2018-10-09T12:06:31.690Z,41.13
2018-10-09T12:09:00.867Z,37.30
2018-10-09T12:11:30.123Z,35.83
2018-10-09T12:13:59.348Z,37.80
2018-10-09T12:16:28.527Z,35.17
2018-10-09T12:18:57.693Z,40.50
2018-10-09T12:21:27.137Z,37.63
2018-10-09T12:23:56.327Z,39.20
2018-10-09T12:26:25.569Z,36.60
2018-10-09T12:28:54.725Z,36.93
2018-10-09T12:31:23.987Z,33.97
2018-10-09T12:33:53.152Z,37.20
2018-10-09T12:36:22.320Z,34.23
2018-10-09T12:38:51.485Z,33.98
2018-10-09T12:41:20.823Z,34.73
2018-10-09T12:43:50.146Z,40.77
2018-10-09T12:46:46.195Z,29.20
2018-10-09T12:49:15.347Z,33.30
2018-10-09T12:51:44.551Z,39.40
2018-10-09T12:54:13.700Z,34.50
2018-10-09T12:56:42.888Z,37.98
2018-10-09T12:59:12.095Z,33.10
2018-10-09T13:01:41.350Z,31.50
2018-10-09T13:04:10.910Z,32.23
2018-10-09T13:06:40.071Z,38.50
2018-10-09T13:09:11.764Z,42.03
2018-10-09T13:11:41.079Z,32.47
2018-10-09T13:14:10.847Z,36.40
2018-10-09T13:16:40.021Z,31.33
2018-10-09T13:19:09.557Z,34.23
2018-10-09T13:21:39.490Z,36.03
2018-10-09T13:24:08.748Z,39.80
2018-10-09T13:26:38.011Z,35.33
2018-10-09T13:29:08.568Z,30.90
2018-10-09T13:31:37.806Z,37.60
2018-10-09T13:34:07.383Z,38.00
2018-10-09T13:36:36.633Z,37.33
2018-10-09T13:39:07.326Z,40.73
2018-10-09T13:41:36.758Z,37.20
2018-10-09T13:44:06.234Z,35.30
2018-10-09T13:46:35.901Z,34.58
2018-10-09T13:49:05.319Z,35.35
2018-10-09T13:51:34.617Z,32.83
2018-10-09T13:54:03.871Z,37.40
2018-10-09T13:56:33.021Z,29.53
2018-10-09T13:59:02.220Z,28.73
2018-10-09T14:01:31.488Z,39.60
2018-10-09T14:04:00.685Z,30.10
2018-10-09T14:06:29.841Z,34.90
2018-10-09T14:08:59.006Z,30.27
2018-10-09T14:11:28.363Z,31.40
2018-10-09T14:13:57.559Z,27.87
2018-10-09T14:16:26.767Z,28.90
2018-10-09T14:18:55.884Z,27.93
2018-10-09T14:21:25.230Z,26.62
2018-10-09T14:23:54.562Z,31.02
2018-10-09T14:26:23.760Z,27.60
2018-10-09T14:28:52.945Z,29.43
2018-10-09T14:31:22.328Z,35.10
2018-10-09T14:33:51.536Z,31.57
2018-10-09T14:36:20.703Z,29.43
2018-10-09T14:38:49.925Z,31.87
2018-10-09T14:41:19.114Z,26.47
2018-10-09T14:43:48.327Z,25.08
2018-10-09T14:46:17.467Z,30.10
2018-10-09T14:48:46.619Z,28.30
2018-10-09T14:51:16.030Z,28.25
2018-10-09T14:53:45.205Z,28.13
2018-10-09T14:56:14.345Z,28.60
2018-10-09T14:58:43.712Z,28.07
2018-10-09T15:01:12.932Z,30.40
2018-10-09T15:03:42.136Z,28.53
2018-10-09T15:06:11.295Z,23.50
2018-10-09T15:08:40.516Z,25.93
2018-10-09T15:11:09.935Z,24.43
2018-10-09T15:13:39.157Z,22.13
2018-10-09T15:16:08.466Z,23.70
2018-10-09T15:18:37.634Z,25.90
2018-10-09T15:21:07.543Z,25.33
2018-10-09T15:23:36.752Z,29.90
2018-10-09T15:26:05.879Z,22.00
2018-10-09T15:28:35.056Z,24.20
2018-10-09T15:31:04.235Z,28.13
2018-10-09T15:33:33.721Z,24.30
2018-10-09T15:36:02.873Z,30.10
2018-10-09T15:38:32.063Z,24.10
2018-10-09T15:41:01.361Z,25.17
2018-10-09T15:43:30.509Z,24.77
2018-10-09T15:45:59.674Z,24.90
2018-10-09T15:48:28.835Z,28.37
2018-10-09T15:50:58.059Z,23.40
2018-10-09T15:53:27.287Z,24.32
2018-10-09T15:55:56.450Z,26.80
2018-10-09T15:58:26.004Z,22.85
2018-10-09T16:00:55.516Z,20.13
2018-10-09T16:03:24.739Z,28.53
2018-10-09T16:05:53.912Z,29.30
2018-10-09T16:08:23.551Z,22.60
2018-10-09T16:10:52.995Z,21.70
2018-10-09T16:13:22.160Z,20.90
2018-10-09T16:15:51.491Z,23.70
2018-10-09T16:18:20.742Z,25.80
2018-10-09T16:20:49.992Z,22.23
2018-10-09T16:23:19.131Z,23.90
2018-10-09T16:25:48.320Z,26.70
2018-10-09T16:28:17.558Z,23.10
2018-10-09T16:30:46.712Z,24.23
2018-10-09T16:33:15.921Z,23.27
2018-10-09T16:35:45.133Z,25.50
2018-10-09T16:38:14.308Z,24.87
2018-10-09T16:40:43.529Z,25.70
2018-10-09T16:43:12.715Z,24.67
2018-10-09T16:45:41.972Z,29.50
2018-10-09T16:48:11.541Z,21.60
2018-10-09T16:50:40.837Z,27.77
2018-10-09T16:53:10.604Z,27.27
2018-10-09T16:55:39.759Z,26.70
2018-10-09T16:58:09.474Z,25.03
2018-10-09T17:00:38.715Z,30.93
2018-10-09T17:03:08.257Z,26.93
2018-10-09T17:05:37.499Z,25.23
2018-10-09T17:08:07.665Z,30.72
2018-10-09T17:10:36.845Z,26.43
2018-10-09T17:13:06.207Z,30.23
2018-10-09T17:15:35.560Z,32.33
2018-10-09T17:18:04.715Z,40.00
2018-10-09T17:20:33.946Z,28.90
2018-10-09T17:23:03.114Z,27.80
2018-10-09T17:25:32.282Z,31.35
2018-10-09T17:28:01.483Z,28.40
2018-10-09T17:30:30.868Z,29.37
2018-10-09T17:33:00.084Z,31.80
2018-10-09T17:35:29.241Z,35.67
2018-10-09T17:37:58.401Z,31.50
2018-10-09T17:40:27.582Z,30.80
2018-10-09T17:42:56.727Z,32.57
2018-10-09T17:45:25.954Z,31.40
2018-10-09T17:47:55.109Z,28.77
2018-10-09T17:50:24.295Z,34.97
2018-10-09T17:52:53.444Z,33.30
2018-10-09T17:55:22.828Z,41.45
2018-10-09T17:57:51.989Z,41.23
2018-10-09T18:00:21.908Z,35.27
2018-10-09T18:02:51.087Z,39.53
2018-10-09T18:05:20.685Z,33.43
2018-10-09T18:07:49.908Z,39.60
2018-10-09T18:10:19.487Z,32.53
2018-10-09T18:12:48.659Z,33.50
2018-10-09T18:15:19.339Z,33.23
2018-10-09T18:17:48.559Z,47.13
2018-10-09T18:20:20.738Z,35.43
2018-10-09T18:22:49.929Z,33.43
2018-10-09T18:25:20.363Z,36.77
2018-10-09T18:27:49.566Z,33.10
2018-10-09T18:30:18.844Z,37.10
2018-10-09T18:32:48.206Z,31.45
2018-10-09T18:35:17.871Z,24.33
2018-10-09T18:37:47.034Z,29.27
2018-10-09T18:40:16.854Z,28.70
2018-10-09T18:42:46.001Z,28.10
2018-10-09T18:45:15.324Z,24.83
2018-10-09T18:47:45.219Z,24.70
2018-10-09T18:50:15.397Z,31.03
2018-10-09T18:52:44.566Z,27.27
2018-10-09T18:55:16.234Z,29.85
2018-10-09T18:57:45.836Z,24.77
2018-10-09T19:00:15.786Z,27.63
2018-10-09T19:02:44.959Z,25.40
2018-10-09T19:05:14.119Z,30.07
2018-10-09T19:07:43.267Z,25.03
2018-10-09T19:10:12.760Z,31.77
2018-10-09T19:12:41.932Z,30.75
2018-10-09T19:15:12.454Z,25.33
2018-10-09T19:17:41.647Z,27.40
2018-10-09T19:20:10.791Z,24.93
2018-10-09T19:22:39.967Z,29.70
2018-10-09T19:25:09.375Z,26.97
2018-10-09T19:27:38.568Z,24.83
2018-10-09T19:30:08.211Z,22.73
2018-10-09T19:32:37.503Z,29.23
2018-10-09T19:35:06.651Z,28.03
2018-10-09T19:37:35.845Z,32.10
2018-10-09T19:40:05.402Z,29.10
2018-10-09T19:42:34.607Z,25.90
2018-10-09T19:45:03.825Z,31.62
2018-10-09T19:47:36.831Z,25.17
2018-10-09T19:50:06.995Z,26.73
2018-10-09T19:52:36.602Z,28.87
2018-10-09T19:55:06.205Z,32.33
2018-10-09T19:57:35.384Z,30.07
2018-10-09T20:00:05.009Z,30.15
2018-10-09T20:02:34.243Z,38.20
2018-10-09T20:05:03.585Z,38.30
2018-10-09T20:07:32.809Z,40.33
2018-10-09T20:10:01.912Z,32.15
2018-10-09T20:12:31.123Z,39.70
2018-10-09T20:15:00.356Z,33.60
2018-10-09T20:17:29.636Z,30.97
2018-10-09T20:20:01.694Z,38.13
2018-10-09T20:22:30.902Z,35.43
2018-10-09T20:25:00.191Z,32.65
2018-10-09T20:27:29.388Z,38.67
2018-10-09T20:29:58.583Z,34.30
2018-10-09T20:32:27.818Z,30.90
2018-10-09T20:34:56.976Z,37.20
2018-10-09T20:37:26.179Z,33.65
2018-10-09T20:39:55.409Z,34.50
2018-10-09T20:42:24.601Z,34.23
2018-10-09T20:44:53.799Z,34.97
2018-10-09T20:47:28.342Z,32.70
2018-10-09T20:49:57.613Z,48.47
2018-10-09T20:52:26.811Z,38.70
2018-10-09T20:54:55.962Z,36.80
2018-10-09T20:57:25.176Z,40.53
2018-10-09T20:59:54.412Z,37.07
2018-10-09T21:02:23.610Z,37.77
2018-10-09T21:04:55.623Z,47.50
2018-10-09T21:07:24.967Z,42.37
2018-10-09T21:09:54.267Z,40.40
2018-10-09T21:12:23.432Z,39.63
2018-10-09T21:14:52.710Z,35.77
2018-10-09T21:17:22.066Z,42.87
2018-10-09T21:19:51.442Z,36.10
2018-10-09T21:22:20.730Z,39.83
2018-10-09T21:24:49.922Z,37.43
2018-10-09T21:27:19.233Z,39.00
2018-10-09T21:29:48.500Z,37.50
2018-10-09T21:32:18.185Z,39.25
2018-10-09T21:34:47.512Z,34.87
2018-10-09T21:37:16.931Z,35.43
2018-10-09T21:39:46.238Z,64.73
2018-10-09T21:42:16.070Z,48.80
2018-10-09T21:44:45.299Z,40.63
2018-10-09T21:47:15.084Z,38.98
2018-10-09T21:49:44.395Z,40.43
2018-10-09T21:52:13.552Z,38.73
2018-10-09T21:54:42.716Z,43.13
2018-10-09T21:57:12.012Z,41.07
2018-10-09T21:59:41.175Z,41.63
2018-10-09T22:02:10.372Z,40.80
2018-10-09T22:04:39.568Z,38.63
2018-10-09T22:07:08.768Z,36.33
2018-10-09T22:09:37.947Z,34.47
2018-10-09T22:12:07.067Z,36.00
2018-10-09T22:14:36.250Z,39.30
2018-10-09T22:17:05.636Z,36.57
2018-10-09T22:19:34.858Z,37.63
2018-10-09T22:22:04.020Z,44.70
2018-10-09T22:24:33.263Z,36.80
2018-10-09T22:27:02.347Z,40.97
2018-10-09T22:29:31.553Z,41.03
2018-10-09T22:32:00.760Z,44.50
2018-10-09T22:34:29.948Z,43.40
2018-10-09T22:36:59.170Z,40.07
2018-10-09T22:39:28.362Z,40.53
2018-10-09T22:41:57.542Z,39.20
2018-10-09T22:44:26.710Z,48.97
2018-10-09T22:46:55.944Z,37.67
2018-10-09T22:49:25.161Z,41.63
2018-10-09T22:51:54.467Z,40.30
2018-10-09T22:54:23.621Z,42.20
2018-10-09T22:56:53.105Z,39.43
2018-10-09T22:59:22.318Z,39.40
2018-10-09T23:01:51.532Z,40.53
2018-10-09T23:04:20.694Z,42.47
2018-10-09T23:06:49.887Z,43.78
2018-10-09T23:09:19.050Z,46.63
2018-10-09T23:11:48.239Z,46.67
2018-10-09T23:14:17.676Z,45.43
2018-10-09T23:16:46.893Z,47.90
2018-10-09T23:19:16.760Z,45.57
2018-10-09T23:21:45.932Z,56.68
2018-10-09T23:24:15.800Z,45.43
2018-10-09T23:26:44.995Z,43.60
2018-10-09T23:29:14.843Z,45.43
2018-10-09T23:31:44.070Z,52.25
2018-10-09T23:34:13.238Z,46.42
2018-10-09T23:36:43.492Z,45.67
2018-10-09T23:39:12.711Z,46.40
2018-10-09T23:41:41.893Z,45.30
2018-10-09T23:44:12.079Z,50.12
2018-10-09T23:46:41.381Z,55.73
2018-10-09T23:49:10.592Z,47.73
2018-10-09T23:51:39.789Z,52.77
2018-10-09T23:54:08.968Z,52.90
2018-10-09T23:56:38.151Z,51.77
2018-10-09T23:59:07.640Z,56.33
